createdAt,value
2024-01-31T00:01:09.294Z,59.73
2024-01-31T00:03:27.922Z,62.37
2024-01-31T00:05:36.159Z,71.02
2024-01-31T00:07:44.617Z,64.98
2024-01-31T00:09:52.768Z,56.49
2024-01-31T00:12:01.282Z,50.87
2024-01-31T00:14:09.894Z,51.36
2024-01-31T00:16:18.175Z,52.21
2024-01-31T00:18:26.466Z,53.22
2024-01-31T00:20:34.597Z,53.84
2024-01-31T00:22:45.680Z,58.34
2024-01-31T00:24:53.884Z,58.56
2024-01-31T00:27:01.949Z,60.78
2024-01-31T00:29:10.033Z,67.04
2024-01-31T00:31:18.954Z,66.53
2024-01-31T00:33:27.128Z,60.55
2024-01-31T00:35:35.301Z,52.95
2024-01-31T00:37:43.873Z,51.79
2024-01-31T00:39:52.101Z,52.00
2024-01-31T00:42:00.273Z,52.70
2024-01-31T00:44:08.503Z,55.99
2024-01-31T00:46:16.811Z,56.56
2024-01-31T00:48:25.153Z,57.25
2024-01-31T00:50:33.512Z,58.57
2024-01-31T00:52:45.567Z,60.69
2024-01-31T00:54:54.255Z,64.60
2024-01-31T00:57:02.615Z,68.60
2024-01-31T00:59:10.817Z,62.00
2024-01-31T01:01:19.351Z,54.48
2024-01-31T01:03:27.655Z,50.50
2024-01-31T01:05:35.959Z,51.78
2024-01-31T01:07:46.919Z,55.18
2024-01-31T01:09:55.230Z,55.86
2024-01-31T01:12:04.372Z,59.43
2024-01-31T01:14:12.446Z,59.72
2024-01-31T01:16:21.639Z,59.70
2024-01-31T01:18:29.764Z,60.13
2024-01-31T01:20:38.385Z,62.34
2024-01-31T01:22:48.010Z,71.18
2024-01-31T01:24:56.218Z,65.83
2024-01-31T01:27:04.408Z,59.42
2024-01-31T01:29:12.629Z,53.42
2024-01-31T01:31:20.852Z,51.31
2024-01-31T01:33:29.052Z,52.47
2024-01-31T01:35:39.880Z,54.87
2024-01-31T01:37:48.035Z,56.25
2024-01-31T01:39:56.313Z,59.36
2024-01-31T01:42:04.517Z,61.62
2024-01-31T01:44:15.820Z,65.18
2024-01-31T01:46:25.397Z,66.35
2024-01-31T01:48:33.568Z,62.08
2024-01-31T01:50:42.469Z,55.28
2024-01-31T01:52:51.732Z,52.59
2024-01-31T01:55:04.107Z,53.67
2024-01-31T01:57:13.398Z,55.67
2024-01-31T01:59:22.328Z,57.49
2024-01-31T02:01:31.370Z,58.38
2024-01-31T02:03:39.823Z,61.36
2024-01-31T02:05:48.425Z,61.67
2024-01-31T02:07:57.571Z,69.59
2024-01-31T02:10:06.380Z,66.17
2024-01-31T02:12:14.996Z,60.49
2024-01-31T02:14:23.102Z,53.19
2024-01-31T02:16:31.949Z,50.28
2024-01-31T02:18:40.227Z,51.14
2024-01-31T02:20:48.797Z,52.39
2024-01-31T02:22:58.261Z,54.12
2024-01-31T02:25:13.164Z,56.37
2024-01-31T02:27:22.576Z,56.85
2024-01-31T02:29:30.756Z,57.88
2024-01-31T02:31:38.985Z,59.24
2024-01-31T02:33:47.145Z,59.73
2024-01-31T02:35:55.339Z,61.28
2024-01-31T02:38:03.762Z,68.49
2024-01-31T02:40:13.421Z,71.15
2024-01-31T02:42:21.943Z,64.05
2024-01-31T02:44:30.472Z,56.48
2024-01-31T02:46:39.373Z,52.55
2024-01-31T02:48:47.931Z,52.27
2024-01-31T02:50:56.167Z,54.23
2024-01-31T02:53:04.778Z,55.02
2024-01-31T02:55:13.443Z,57.04
2024-01-31T02:57:21.714Z,56.99
2024-01-31T02:59:29.795Z,58.33
2024-01-31T03:01:38.612Z,59.49
2024-01-31T03:03:46.801Z,62.05
2024-01-31T03:05:55.010Z,71.68
2024-01-31T03:08:03.326Z,67.73
2024-01-31T03:10:13.631Z,59.67
2024-01-31T03:12:23.276Z,52.89
2024-01-31T03:14:31.452Z,52.54
2024-01-31T03:16:41.894Z,52.95
2024-01-31T03:18:50.361Z,54.89
2024-01-31T03:20:58.519Z,58.14
2024-01-31T03:23:06.840Z,57.73
2024-01-31T03:25:15.402Z,60.77
2024-01-31T03:27:23.648Z,67.63
2024-01-31T03:29:31.770Z,67.56
2024-01-31T03:31:39.923Z,61.77
2024-01-31T03:33:48.149Z,53.65
2024-01-31T03:35:56.309Z,52.07
2024-01-31T03:38:04.429Z,52.02
2024-01-31T03:40:13.904Z,53.01
2024-01-31T03:42:22.557Z,55.96
2024-01-31T03:44:30.657Z,57.82
2024-01-31T03:46:38.854Z,59.22
2024-01-31T03:48:47.111Z,62.23
2024-01-31T03:50:55.243Z,68.20
2024-01-31T03:53:03.930Z,62.49
2024-01-31T03:55:13.234Z,54.81
2024-01-31T03:57:21.565Z,52.76
2024-01-31T03:59:29.699Z,53.77
2024-01-31T04:01:37.905Z,55.10
2024-01-31T04:03:47.508Z,57.98
2024-01-31T04:05:56.900Z,59.86
2024-01-31T04:08:05.612Z,62.18
2024-01-31T04:10:14.764Z,67.32
2024-01-31T04:12:22.951Z,65.16
2024-01-31T04:14:31.057Z,57.03
2024-01-31T04:16:39.173Z,53.17
2024-01-31T04:18:47.825Z,53.81
2024-01-31T04:20:56.015Z,56.99
2024-01-31T04:23:04.144Z,58.84
2024-01-31T04:25:12.428Z,60.83
2024-01-31T04:27:20.688Z,61.39
2024-01-31T04:29:28.815Z,67.62
2024-01-31T04:31:37.493Z,65.23
2024-01-31T04:33:46.546Z,58.92
2024-01-31T04:35:56.165Z,51.92
2024-01-31T04:38:04.320Z,51.96
2024-01-31T04:40:13.876Z,55.25
2024-01-31T04:42:22.037Z,57.65
2024-01-31T04:44:30.446Z,58.88
2024-01-31T04:46:38.817Z,59.64
2024-01-31T04:48:47.895Z,64.42
2024-01-31T04:50:56.057Z,68.88
2024-01-31T04:53:04.133Z,62.76
2024-01-31T04:55:12.770Z,53.59
2024-01-31T04:57:21.120Z,52.74
2024-01-31T04:59:29.264Z,52.77
2024-01-31T05:01:37.487Z,54.10
2024-01-31T05:03:46.101Z,55.55
2024-01-31T05:05:54.279Z,58.11
2024-01-31T05:08:02.395Z,59.08
2024-01-31T05:10:12.486Z,58.89
2024-01-31T05:12:21.379Z,60.41
2024-01-31T05:14:29.568Z,65.77
2024-01-31T05:16:40.876Z,69.65
2024-01-31T05:18:49.376Z,63.70
2024-01-31T05:20:57.737Z,55.69
2024-01-31T05:23:06.025Z,53.54
2024-01-31T05:25:14.554Z,53.61
2024-01-31T05:27:22.623Z,57.01
2024-01-31T05:29:30.766Z,59.60
2024-01-31T05:31:38.997Z,61.39
2024-01-31T05:33:47.529Z,67.14
2024-01-31T05:35:55.643Z,66.20
2024-01-31T05:38:03.751Z,60.43
2024-01-31T05:40:17.943Z,53.69
2024-01-31T05:42:26.223Z,51.55
2024-01-31T05:44:34.344Z,52.79
2024-01-31T05:46:42.571Z,54.11
2024-01-31T05:48:51.123Z,56.56
2024-01-31T05:50:59.716Z,57.41
2024-01-31T05:53:08.516Z,58.15
2024-01-31T05:55:16.891Z,59.46
2024-01-31T05:57:25.923Z,60.23
2024-01-31T05:59:35.518Z,66.46
2024-01-31T06:01:43.750Z,70.41
2024-01-31T06:03:52.066Z,64.33
2024-01-31T06:06:00.280Z,60.35
2024-01-31T06:08:09.639Z,54.00
2024-01-31T06:10:17.932Z,51.97
2024-01-31T06:12:26.073Z,52.60
2024-01-31T06:14:37.309Z,53.73
2024-01-31T06:16:45.450Z,56.26
2024-01-31T06:18:53.676Z,59.88
2024-01-31T06:21:01.904Z,59.50
2024-01-31T06:23:11.295Z,63.19
2024-01-31T06:25:19.687Z,65.88
2024-01-31T06:27:28.276Z,63.54
2024-01-31T06:29:36.343Z,56.21
2024-01-31T06:31:48.112Z,52.97
2024-01-31T06:33:56.921Z,53.00
2024-01-31T06:36:05.099Z,55.13
2024-01-31T06:38:13.212Z,58.38
2024-01-31T06:40:22.006Z,59.20
2024-01-31T06:42:30.118Z,59.42
2024-01-31T06:44:38.215Z,60.50
2024-01-31T06:46:50.492Z,66.15
2024-01-31T06:48:59.753Z,68.30
2024-01-31T06:51:09.824Z,62.99
2024-01-31T06:53:19.032Z,55.35
2024-01-31T06:55:27.522Z,54.34
2024-01-31T06:57:36.359Z,54.76
2024-01-31T06:59:44.482Z,57.86
2024-01-31T07:01:52.565Z,59.64
2024-01-31T07:04:00.732Z,60.39
2024-01-31T07:06:09.481Z,65.30
2024-01-31T07:08:17.732Z,67.22
2024-01-31T07:10:26.018Z,61.27
2024-01-31T07:12:34.219Z,55.59
2024-01-31T07:14:44.884Z,51.94
2024-01-31T07:16:53.257Z,52.75
2024-01-31T07:19:01.519Z,55.61
2024-01-31T07:21:13.260Z,57.83
2024-01-31T07:23:22.280Z,60.73
2024-01-31T07:25:30.427Z,64.57
2024-01-31T07:27:39.522Z,67.22
2024-01-31T07:29:49.870Z,60.22
2024-01-31T07:31:58.221Z,53.53
2024-01-31T07:34:06.514Z,53.59
2024-01-31T07:36:15.125Z,56.10
2024-01-31T07:38:23.980Z,56.73
2024-01-31T07:40:32.268Z,58.42
2024-01-31T07:42:41.264Z,59.45
2024-01-31T07:44:49.594Z,65.68
2024-01-31T07:46:58.775Z,66.05
2024-01-31T07:49:08.218Z,61.41
2024-01-31T07:51:16.932Z,54.45
2024-01-31T07:53:25.178Z,51.86
2024-01-31T07:55:33.490Z,52.98
2024-01-31T07:57:41.768Z,57.10
2024-01-31T07:59:49.982Z,59.38
2024-01-31T08:01:58.260Z,61.40
2024-01-31T08:04:08.364Z,65.40
2024-01-31T08:06:16.754Z,67.99
2024-01-31T08:08:25.154Z,59.97
2024-01-31T08:10:33.506Z,53.60
2024-01-31T08:12:42.552Z,55.22
2024-01-31T08:14:50.729Z,54.82
2024-01-31T08:16:58.984Z,58.00
2024-01-31T08:19:08.001Z,58.60
2024-01-31T08:21:16.502Z,58.82
2024-01-31T08:23:24.756Z,64.30
2024-01-31T08:25:33.289Z,68.89
2024-01-31T08:27:41.736Z,62.44
2024-01-31T08:29:49.991Z,56.49
2024-01-31T08:31:58.312Z,53.70
2024-01-31T08:34:06.759Z,54.48
2024-01-31T08:36:15.282Z,56.06
2024-01-31T08:38:24.840Z,59.13
2024-01-31T08:40:33.088Z,61.07
2024-01-31T08:42:41.515Z,65.41
2024-01-31T08:44:50.075Z,65.34
2024-01-31T08:47:10.162Z,59.57
2024-01-31T08:49:26.678Z,52.59
2024-01-31T08:51:36.789Z,54.75
2024-01-31T08:53:45.423Z,55.89
2024-01-31T08:56:01.531Z,58.37
2024-01-31T08:58:17.022Z,60.23
2024-01-31T09:00:25.663Z,65.69
2024-01-31T09:02:33.957Z,66.30
2024-01-31T09:04:42.327Z,60.50
2024-01-31T09:06:50.748Z,54.56
2024-01-31T09:08:59.114Z,54.62
2024-01-31T09:11:07.731Z,57.41
2024-01-31T09:13:16.124Z,59.51
2024-01-31T09:15:24.396Z,60.30
2024-01-31T09:17:32.657Z,65.64
2024-01-31T09:19:43.028Z,65.20
2024-01-31T09:21:53.202Z,57.75
2024-01-31T09:24:02.122Z,53.76
2024-01-31T09:26:11.060Z,53.93
2024-01-31T09:28:19.319Z,55.35
2024-01-31T09:30:27.585Z,57.75
2024-01-31T09:32:35.857Z,60.04
2024-01-31T09:34:44.982Z,63.62
2024-01-31T09:36:53.666Z,63.44
2024-01-31T09:39:01.886Z,57.99
2024-01-31T09:41:10.171Z,53.72
2024-01-31T09:43:18.509Z,54.34
2024-01-31T09:45:29.217Z,55.41
2024-01-31T09:47:39.262Z,57.13
2024-01-31T09:49:47.552Z,60.95
2024-01-31T09:52:01.229Z,65.30
2024-01-31T09:54:11.842Z,64.29
2024-01-31T09:56:20.519Z,57.26
2024-01-31T09:58:29.020Z,52.87
2024-01-31T10:00:38.570Z,55.18
2024-01-31T10:02:50.114Z,56.58
2024-01-31T10:04:58.572Z,57.94
2024-01-31T10:07:09.500Z,62.15
2024-01-31T10:09:18.512Z,68.19
2024-01-31T10:11:26.888Z,61.96
2024-01-31T10:13:35.235Z,54.80
2024-01-31T10:15:43.927Z,52.49
2024-01-31T10:17:52.205Z,54.32
2024-01-31T10:20:08.249Z,55.44
2024-01-31T10:22:16.735Z,57.33
2024-01-31T10:24:25.115Z,58.13
2024-01-31T10:26:35.482Z,59.06
2024-01-31T10:28:45.796Z,67.17
2024-01-31T10:30:59.459Z,67.20
2024-01-31T10:33:08.978Z,59.12
2024-01-31T10:35:32.877Z,53.71
2024-01-31T10:37:55.800Z,53.21
2024-01-31T10:40:11.877Z,55.92
2024-01-31T10:42:20.828Z,58.43
2024-01-31T10:44:29.984Z,63.59
2024-01-31T10:46:38.368Z,66.58
2024-01-31T10:48:47.042Z,61.30
2024-01-31T10:50:58.037Z,55.35
2024-01-31T10:53:10.150Z,53.32
2024-01-31T10:55:19.319Z,55.53
2024-01-31T10:57:29.430Z,56.76
2024-01-31T10:59:39.629Z,59.39
2024-01-31T11:02:00.142Z,59.50
2024-01-31T11:04:11.508Z,59.87
2024-01-31T11:06:20.678Z,65.43
2024-01-31T11:08:29.409Z,66.40
2024-01-31T11:10:39.900Z,60.78
2024-01-31T11:13:00.937Z,54.25
2024-01-31T11:15:10.878Z,53.62
2024-01-31T11:17:25.027Z,54.87
2024-01-31T11:19:34.428Z,58.24
2024-01-31T11:21:42.700Z,57.01
2024-01-31T11:23:51.226Z,60.52
2024-01-31T11:26:00.247Z,65.36
2024-01-31T11:28:11.192Z,60.59
2024-01-31T11:30:19.825Z,53.59
2024-01-31T11:32:28.334Z,52.31
2024-01-31T11:34:36.764Z,54.53
2024-01-31T11:36:45.192Z,55.44
2024-01-31T11:38:53.496Z,56.97
2024-01-31T11:41:02.179Z,60.83
2024-01-31T11:43:11.573Z,64.63
2024-01-31T11:45:20.284Z,64.74
2024-01-31T11:47:29.395Z,56.84
2024-01-31T11:49:37.858Z,55.12
2024-01-31T11:51:54.571Z,54.30
2024-01-31T11:54:02.918Z,55.15
2024-01-31T11:56:12.723Z,59.66
2024-01-31T11:58:21.120Z,58.67
2024-01-31T12:00:30.798Z,62.36
2024-01-31T12:02:40.154Z,64.86
2024-01-31T12:04:59.513Z,64.39
2024-01-31T12:07:09.458Z,55.77
2024-01-31T12:09:18.509Z,50.91
2024-01-31T12:11:27.286Z,53.16
2024-01-31T12:13:35.992Z,53.75
2024-01-31T12:15:44.253Z,55.64
2024-01-31T12:17:52.751Z,58.30
2024-01-31T12:20:10.356Z,61.65
2024-01-31T12:22:19.698Z,66.38
2024-01-31T12:24:27.903Z,65.91
2024-01-31T12:26:36.208Z,55.98
2024-01-31T12:28:54.722Z,51.20
2024-01-31T12:31:02.980Z,53.23
2024-01-31T12:33:11.310Z,54.69
2024-01-31T12:35:20.982Z,54.56
2024-01-31T12:37:29.420Z,55.79
2024-01-31T12:39:37.655Z,57.02
2024-01-31T12:41:49.292Z,61.42
2024-01-31T12:43:58.360Z,64.01
2024-01-31T12:46:07.463Z,63.43
2024-01-31T12:48:16.191Z,55.56
2024-01-31T12:50:24.474Z,51.05
2024-01-31T12:52:32.686Z,52.38
2024-01-31T12:54:40.937Z,54.60
2024-01-31T12:56:49.278Z,55.23
2024-01-31T12:58:58.987Z,56.74
2024-01-31T13:01:08.135Z,60.08
2024-01-31T13:03:16.535Z,58.69
2024-01-31T13:05:25.526Z,61.41
2024-01-31T13:07:34.150Z,64.88
2024-01-31T13:09:42.935Z,67.93
2024-01-31T13:11:51.172Z,59.93
2024-01-31T13:13:59.320Z,51.61
2024-01-31T13:16:08.887Z,50.77
2024-01-31T13:18:17.192Z,51.37
2024-01-31T13:20:25.553Z,57.00
2024-01-31T13:22:33.744Z,56.07
2024-01-31T13:24:41.872Z,56.68
2024-01-31T13:26:50.328Z,59.34
2024-01-31T13:28:58.612Z,63.67
2024-01-31T13:31:06.892Z,65.65
2024-01-31T13:33:15.108Z,60.80
2024-01-31T13:35:24.207Z,52.00
2024-01-31T13:37:32.425Z,49.97
2024-01-31T13:39:40.515Z,51.23
2024-01-31T13:41:48.633Z,52.58
2024-01-31T13:43:56.689Z,54.06
2024-01-31T13:46:05.266Z,55.87
2024-01-31T13:48:13.478Z,55.94
2024-01-31T13:50:21.785Z,57.74
2024-01-31T13:52:30.317Z,60.04
2024-01-31T13:54:38.508Z,67.38
2024-01-31T13:56:46.618Z,67.43
2024-01-31T13:58:54.736Z,57.44
2024-01-31T14:01:03.243Z,50.99
2024-01-31T14:03:11.485Z,51.07
2024-01-31T14:05:20.163Z,55.11
2024-01-31T14:07:28.336Z,53.01
2024-01-31T14:09:36.447Z,53.75
2024-01-31T14:11:44.662Z,57.23
2024-01-31T14:13:52.819Z,57.65
2024-01-31T14:16:00.894Z,59.89
2024-01-31T14:18:13.249Z,62.10
2024-01-31T14:20:23.090Z,68.86
2024-01-31T14:24:43.605Z,54.17
2024-01-31T14:26:52.190Z,51.58
2024-01-31T14:29:00.299Z,53.81
2024-01-31T14:31:10.670Z,52.93
2024-01-31T14:33:18.940Z,55.42
2024-01-31T14:35:27.254Z,56.57
2024-01-31T14:37:35.412Z,56.05
2024-01-31T14:39:43.615Z,60.14
2024-01-31T14:41:51.780Z,60.96
2024-01-31T14:43:59.937Z,65.19
2024-01-31T14:46:08.268Z,67.70
2024-01-31T14:48:17.705Z,58.92
2024-01-31T14:50:26.097Z,49.87
2024-01-31T14:52:35.512Z,51.21
2024-01-31T14:54:43.846Z,51.85
2024-01-31T14:56:53.388Z,53.38
2024-01-31T14:59:01.660Z,54.59
2024-01-31T15:01:10.442Z,55.09
2024-01-31T15:03:18.664Z,57.01
2024-01-31T15:05:27.636Z,57.57
2024-01-31T15:07:35.977Z,58.95
2024-01-31T15:09:44.115Z,59.04
2024-01-31T15:11:52.816Z,59.37
2024-01-31T15:14:01.220Z,62.55
2024-01-31T15:16:15.770Z,71.92
2024-01-31T15:18:24.027Z,66.29
2024-01-31T15:20:32.515Z,56.93
2024-01-31T15:22:40.828Z,52.31
2024-01-31T15:24:48.995Z,51.13
2024-01-31T15:26:57.162Z,53.87
2024-01-31T15:29:05.324Z,55.17
2024-01-31T15:31:13.543Z,56.42
2024-01-31T15:33:21.951Z,58.55
2024-01-31T15:35:32.407Z,59.56
2024-01-31T15:37:40.667Z,61.45
2024-01-31T15:39:48.861Z,60.87
2024-01-31T15:41:57.204Z,60.98
2024-01-31T15:44:05.360Z,68.11
2024-01-31T15:46:14.602Z,66.27
2024-01-31T15:48:23.724Z,57.07
2024-01-31T15:50:32.325Z,49.99
2024-01-31T15:52:40.807Z,50.62
2024-01-31T15:54:49.062Z,50.60
2024-01-31T15:56:57.484Z,54.93
2024-01-31T15:59:28.489Z,56.52
2024-01-31T16:01:38.080Z,58.96
2024-01-31T16:03:46.730Z,58.75
2024-01-31T16:05:55.133Z,58.03
2024-01-31T16:08:03.631Z,60.13
2024-01-31T16:10:12.416Z,67.73
2024-01-31T16:12:20.831Z,65.35
2024-01-31T16:14:29.250Z,56.65
2024-01-31T16:16:37.430Z,51.07
2024-01-31T16:18:45.761Z,52.02
2024-01-31T16:20:54.307Z,52.58
2024-01-31T16:23:03.055Z,55.65
2024-01-31T16:25:12.299Z,55.33
2024-01-31T16:27:20.561Z,56.99
2024-01-31T16:29:28.904Z,57.89
2024-01-31T16:31:40.467Z,63.07
2024-01-31T16:33:48.749Z,68.73
2024-01-31T16:35:58.923Z,60.05
2024-01-31T16:38:08.518Z,50.70
2024-01-31T16:40:17.432Z,49.83
2024-01-31T16:42:25.667Z,51.13
2024-01-31T16:44:33.885Z,53.40
2024-01-31T16:46:42.621Z,53.94
2024-01-31T16:48:52.829Z,55.94
2024-01-31T16:51:01.317Z,58.46
2024-01-31T16:53:09.509Z,57.77
2024-01-31T16:55:18.096Z,60.22
2024-01-31T16:57:26.270Z,67.47
2024-01-31T16:59:34.696Z,67.54
2024-01-31T17:01:47.016Z,60.48
2024-01-31T17:03:55.525Z,53.54
2024-01-31T17:06:04.578Z,50.45
2024-01-31T17:08:12.905Z,51.89
2024-01-31T17:10:21.113Z,54.03
2024-01-31T17:12:30.378Z,57.39
2024-01-31T17:14:43.759Z,57.42
2024-01-31T17:16:55.682Z,56.62
2024-01-31T17:19:05.723Z,57.48
2024-01-31T17:21:14.700Z,58.59
2024-01-31T17:23:25.608Z,60.35
2024-01-31T17:25:35.423Z,68.86
2024-01-31T17:27:43.569Z,66.71
2024-01-31T17:29:51.794Z,57.53
2024-01-31T17:31:59.995Z,53.51
2024-01-31T17:34:08.366Z,53.52
2024-01-31T17:36:19.065Z,54.51
2024-01-31T17:38:27.301Z,56.48
2024-01-31T17:40:35.525Z,59.06
2024-01-31T17:42:44.133Z,61.35
2024-01-31T17:44:53.027Z,60.13
2024-01-31T17:47:01.556Z,66.32
2024-01-31T17:49:09.748Z,69.27
2024-01-31T17:51:18.102Z,62.07
2024-01-31T17:53:26.308Z,52.70
2024-01-31T17:55:34.760Z,50.57
2024-01-31T17:57:43.458Z,51.36
2024-01-31T17:59:52.586Z,53.46
2024-01-31T18:02:01.782Z,55.90
2024-01-31T18:04:11.325Z,55.39
2024-01-31T18:06:19.563Z,58.65
2024-01-31T18:08:27.849Z,58.45
2024-01-31T18:10:36.359Z,58.73
2024-01-31T18:12:44.523Z,64.44
2024-01-31T18:14:52.722Z,69.72
2024-01-31T18:17:00.880Z,63.76
2024-01-31T18:19:09.215Z,54.35
2024-01-31T18:21:17.743Z,51.11
2024-01-31T18:23:26.499Z,50.52
2024-01-31T18:25:34.666Z,54.14
2024-01-31T18:27:42.853Z,54.16
2024-01-31T18:29:51.513Z,56.18
2024-01-31T18:31:59.758Z,57.68
2024-01-31T18:34:07.980Z,56.85
2024-01-31T18:36:16.336Z,60.26
2024-01-31T18:38:25.215Z,64.23
2024-01-31T18:40:33.290Z,64.80
2024-01-31T18:42:41.389Z,58.57
2024-01-31T18:44:50.893Z,52.35
2024-01-31T18:46:59.921Z,50.40
2024-01-31T18:49:09.740Z,51.33
2024-01-31T18:51:18.278Z,53.61
2024-01-31T18:53:26.423Z,54.68
2024-01-31T18:55:34.571Z,58.81
2024-01-31T18:57:42.679Z,59.02
2024-01-31T18:59:51.536Z,61.47
2024-01-31T19:02:02.004Z,65.26
2024-01-31T19:04:10.122Z,64.79
2024-01-31T19:06:20.026Z,59.72
2024-01-31T19:08:28.454Z,50.59
2024-01-31T19:10:37.121Z,51.09
2024-01-31T19:12:45.196Z,51.97
2024-01-31T19:14:53.349Z,54.40
2024-01-31T19:17:10.490Z,56.18
2024-01-31T19:19:23.855Z,59.08
2024-01-31T19:21:32.108Z,59.26
2024-01-31T19:23:40.262Z,60.88
2024-01-31T19:25:48.713Z,62.52
2024-01-31T19:27:57.087Z,66.30
2024-01-31T19:30:08.656Z,62.73
2024-01-31T19:32:18.835Z,53.89
2024-01-31T19:34:27.016Z,52.12
2024-01-31T19:36:35.483Z,53.16
2024-01-31T19:38:43.607Z,54.11
2024-01-31T19:40:52.965Z,53.88
2024-01-31T19:43:01.091Z,57.20
2024-01-31T19:45:11.656Z,58.56
2024-01-31T19:47:21.936Z,60.41
2024-01-31T19:49:31.424Z,62.35
2024-01-31T19:51:39.623Z,68.45
2024-01-31T19:53:53.056Z,63.73
2024-01-31T19:56:01.221Z,53.78
2024-01-31T19:58:10.105Z,48.10
2024-01-31T20:00:19.947Z,48.93
2024-01-31T20:02:28.097Z,52.09
2024-01-31T20:04:36.645Z,54.10
2024-01-31T20:06:44.987Z,57.48
2024-01-31T20:08:53.830Z,58.77
2024-01-31T20:11:02.696Z,58.55
2024-01-31T20:13:10.883Z,61.08
2024-01-31T20:15:19.605Z,60.82
2024-01-31T20:17:30.429Z,66.29
2024-01-31T20:19:39.060Z,65.53
2024-01-31T20:21:48.338Z,57.48
2024-01-31T20:23:58.131Z,52.27
2024-01-31T20:26:06.531Z,52.93
2024-01-31T20:28:14.654Z,55.44
2024-01-31T20:30:23.137Z,56.98
2024-01-31T20:32:31.355Z,57.48
2024-01-31T20:34:39.623Z,56.55
2024-01-31T20:36:47.764Z,59.54
2024-01-31T20:38:55.972Z,59.89
2024-01-31T20:41:04.156Z,60.57
2024-01-31T20:43:12.229Z,67.80
2024-01-31T20:45:20.973Z,66.46
2024-01-31T20:47:29.587Z,60.56
2024-01-31T20:49:41.333Z,52.95
2024-01-31T20:51:49.621Z,51.01
2024-01-31T20:53:57.715Z,53.32
2024-01-31T20:56:08.533Z,56.21
2024-01-31T20:58:17.093Z,57.50
2024-01-31T21:00:25.665Z,58.66
2024-01-31T21:02:34.234Z,59.36
2024-01-31T21:04:42.625Z,60.64
2024-01-31T21:06:50.934Z,60.57
2024-01-31T21:08:59.195Z,65.48
2024-01-31T21:11:08.215Z,68.42
2024-01-31T21:13:18.271Z,58.52
2024-01-31T21:15:26.687Z,54.77
2024-01-31T21:17:35.392Z,54.40
2024-01-31T21:19:43.569Z,57.36
2024-01-31T21:21:51.882Z,57.79
2024-01-31T21:24:00.902Z,60.90
2024-01-31T21:26:09.848Z,62.03
2024-01-31T21:28:21.244Z,65.55
2024-01-31T21:30:29.513Z,67.49
2024-01-31T21:32:37.722Z,60.08
2024-01-31T21:34:45.958Z,52.45
2024-01-31T21:36:54.129Z,52.77
2024-01-31T21:39:02.509Z,55.76
2024-01-31T21:41:10.762Z,56.12
2024-01-31T21:43:18.922Z,57.42
2024-01-31T21:45:26.988Z,59.76
2024-01-31T21:47:35.187Z,60.78
2024-01-31T21:49:43.497Z,62.11
2024-01-31T21:51:51.653Z,66.71
2024-01-31T21:53:59.869Z,64.51
2024-01-31T21:56:09.533Z,55.49
2024-01-31T21:58:18.064Z,53.12
2024-01-31T22:00:26.770Z,52.30
2024-01-31T22:02:35.746Z,54.01
2024-01-31T22:04:45.580Z,57.67
2024-01-31T22:06:56.420Z,55.56
2024-01-31T22:09:06.090Z,57.50
2024-01-31T22:11:15.519Z,59.97
2024-01-31T22:13:24.206Z,59.94
2024-01-31T22:15:32.850Z,60.30
2024-01-31T22:17:42.549Z,66.15
2024-01-31T22:19:51.228Z,70.84
2024-01-31T22:21:59.570Z,62.05
2024-01-31T22:24:10.565Z,53.33
2024-01-31T22:26:20.916Z,49.33
2024-01-31T22:28:29.127Z,50.43
2024-01-31T22:30:37.311Z,51.62
2024-01-31T22:32:45.577Z,53.00
2024-01-31T22:34:54.057Z,53.51
2024-01-31T22:37:03.031Z,54.68
2024-01-31T22:39:19.609Z,56.94
2024-01-31T22:41:27.982Z,56.63
2024-01-31T22:43:36.596Z,57.73
2024-01-31T22:45:44.738Z,58.65
2024-01-31T22:47:52.984Z,59.83
2024-01-31T22:50:01.534Z,63.36
2024-01-31T22:52:10.253Z,73.31
2024-01-31T22:54:18.839Z,67.01
2024-01-31T22:56:27.482Z,55.71
2024-01-31T22:58:35.525Z,50.55
2024-01-31T23:00:43.700Z,51.14
2024-01-31T23:02:52.408Z,52.13
2024-01-31T23:05:00.732Z,53.69
2024-01-31T23:07:09.440Z,55.92
2024-01-31T23:09:17.768Z,58.12
2024-01-31T23:11:26.274Z,58.40
2024-01-31T23:13:35.353Z,58.70
2024-01-31T23:15:43.808Z,61.37
2024-01-31T23:17:52.464Z,64.29
2024-01-31T23:20:01.131Z,72.57
2024-01-31T23:22:10.406Z,68.35
2024-01-31T23:24:19.051Z,57.26
2024-01-31T23:26:27.235Z,51.68
2024-01-31T23:28:35.331Z,51.70
2024-01-31T23:30:43.871Z,53.44
2024-01-31T23:32:52.368Z,56.83
2024-01-31T23:35:00.587Z,56.98
2024-01-31T23:37:09.651Z,59.36
2024-01-31T23:39:17.819Z,60.86
2024-01-31T23:41:26.666Z,65.27
2024-01-31T23:43:34.798Z,70.03
2024-01-31T23:45:43.397Z,62.97
2024-01-31T23:47:51.599Z,54.64
2024-01-31T23:50:00.243Z,52.47
2024-01-31T23:52:09.787Z,53.15
2024-01-31T23:54:17.942Z,55.70
2024-01-31T23:56:26.101Z,58.06
2024-01-31T23:58:34.250Z,58.61
